sensor_id;sensor_type;location;lat;lon;timestamp;P1;durP1;ratioP1;P2;durP2;ratioP2
73776;SDS011;62088;50.240;2.696;2023-07-09T00:01:43;10.70;;;5.43;;
73776;SDS011;62088;50.240;2.696;2023-07-09T00:04:10;9.00;;;5.53;;
73776;SDS011;62088;50.240;2.696;2023-07-09T00:06:38;9.25;;;5.13;;
73776;SDS011;62088;50.240;2.696;2023-07-09T00:09:12;9.57;;;5.15;;
73776;SDS011;62088;50.240;2.696;2023-07-09T00:11:47;8.25;;;5.45;;
73776;SDS011;62088;50.240;2.696;2023-07-09T00:14:15;8.18;;;5.22;;
73776;SDS011;62088;50.240;2.696;2023-07-09T00:16:44;7.60;;;5.22;;
73776;SDS011;62088;50.240;2.696;2023-07-09T00:19:19;9.00;;;4.97;;
73776;SDS011;62088;50.240;2.696;2023-07-09T00:21:50;7.15;;;5.20;;
73776;SDS011;62088;50.240;2.696;2023-07-09T00:24:21;7.88;;;5.13;;
73776;SDS011;62088;50.240;2.696;2023-07-09T00:26:48;7.97;;;5.13;;
73776;SDS011;62088;50.240;2.696;2023-07-09T00:29:17;8.35;;;5.35;;
73776;SDS011;62088;50.240;2.696;2023-07-09T00:31:44;9.40;;;5.90;;
73776;SDS011;62088;50.240;2.696;2023-07-09T00:34:13;12.48;;;5.70;;
73776;SDS011;62088;50.240;2.696;2023-07-09T00:36:41;10.02;;;5.50;;
73776;SDS011;62088;50.240;2.696;2023-07-09T00:39:17;9.15;;;5.57;;
73776;SDS011;62088;50.240;2.696;2023-07-09T00:41:49;9.38;;;5.43;;
73776;SDS011;62088;50.240;2.696;2023-07-09T00:44:23;9.45;;;5.88;;
73776;SDS011;62088;50.240;2.696;2023-07-09T00:49:33;10.00;;;5.68;;
73776;SDS011;62088;50.240;2.696;2023-07-09T00:52:52;9.27;;;5.60;;
73776;SDS011;62088;50.240;2.696;2023-07-09T00:55:04;10.63;;;6.57;;
73776;SDS011;62088;50.240;2.696;2023-07-09T00:57:35;7.35;;;5.32;;
73776;SDS011;62088;50.240;2.696;2023-07-09T01:00:06;9.95;;;5.38;;
73776;SDS011;62088;50.240;2.696;2023-07-09T01:02:37;10.40;;;6.18;;
73776;SDS011;62088;50.240;2.696;2023-07-09T01:05:10;9.32;;;5.78;;
73776;SDS011;62088;50.240;2.696;2023-07-09T01:07:39;8.52;;;5.55;;
73776;SDS011;62088;50.240;2.696;2023-07-09T01:10:07;9.32;;;5.32;;
73776;SDS011;62088;50.240;2.696;2023-07-09T01:12:36;12.15;;;5.82;;
73776;SDS011;62088;50.240;2.696;2023-07-09T01:15:03;9.27;;;5.30;;
73776;SDS011;62088;50.240;2.696;2023-07-09T01:17:31;8.15;;;5.32;;
73776;SDS011;62088;50.240;2.696;2023-07-09T01:19:58;8.77;;;5.50;;
73776;SDS011;62088;50.240;2.696;2023-07-09T01:22:25;9.38;;;5.47;;
73776;SDS011;62088;50.240;2.696;2023-07-09T01:27:30;9.27;;;5.25;;
73776;SDS011;62088;50.240;2.696;2023-07-09T01:30:02;10.43;;;5.40;;
73776;SDS011;62088;50.240;2.696;2023-07-09T01:32:32;8.90;;;5.43;;
73776;SDS011;62088;50.240;2.696;2023-07-09T01:35:01;10.68;;;5.32;;
73776;SDS011;62088;50.240;2.696;2023-07-09T01:37:36;10.02;;;5.82;;
73776;SDS011;62088;50.240;2.696;2023-07-09T01:40:05;7.57;;;5.25;;
73776;SDS011;62088;50.240;2.696;2023-07-09T01:42:55;8.55;;;5.13;;
73776;SDS011;62088;50.240;2.696;2023-07-09T01:45:26;7.75;;;5.13;;
73776;SDS011;62088;50.240;2.696;2023-07-09T01:47:54;8.35;;;5.38;;
73776;SDS011;62088;50.240;2.696;2023-07-09T01:50:22;8.10;;;5.60;;
73776;SDS011;62088;50.240;2.696;2023-07-09T01:52:51;8.45;;;5.35;;
73776;SDS011;62088;50.240;2.696;2023-07-09T01:55:20;7.55;;;5.43;;
73776;SDS011;62088;50.240;2.696;2023-07-09T01:57:47;9.40;;;5.45;;
73776;SDS011;62088;50.240;2.696;2023-07-09T02:00:17;8.73;;;5.35;;
73776;SDS011;62088;50.240;2.696;2023-07-09T02:02:47;10.15;;;5.68;;
73776;SDS011;62088;50.240;2.696;2023-07-09T02:05:16;10.32;;;5.63;;
73776;SDS011;62088;50.240;2.696;2023-07-09T02:07:45;9.50;;;5.63;;
73776;SDS011;62088;50.240;2.696;2023-07-09T02:10:15;8.32;;;5.13;;
73776;SDS011;62088;50.240;2.696;2023-07-09T02:12:43;10.75;;;5.40;;
73776;SDS011;62088;50.240;2.696;2023-07-09T02:15:11;8.55;;;5.68;;
73776;SDS011;62088;50.240;2.696;2023-07-09T02:17:39;9.55;;;5.28;;
73776;SDS011;62088;50.240;2.696;2023-07-09T02:20:07;9.95;;;5.20;;
73776;SDS011;62088;50.240;2.696;2023-07-09T02:22:37;8.95;;;5.45;;
73776;SDS011;62088;50.240;2.696;2023-07-09T02:25:04;8.55;;;5.05;;
73776;SDS011;62088;50.240;2.696;2023-07-09T02:27:32;7.95;;;4.82;;
73776;SDS011;62088;50.240;2.696;2023-07-09T02:30:00;7.85;;;5.07;;
73776;SDS011;62088;50.240;2.696;2023-07-09T02:32:27;8.60;;;4.75;;
73776;SDS011;62088;50.240;2.696;2023-07-09T02:34:54;11.85;;;5.55;;
73776;SDS011;62088;50.240;2.696;2023-07-09T02:37:25;7.95;;;4.80;;
73776;SDS011;62088;50.240;2.696;2023-07-09T02:39:53;7.15;;;4.65;;
73776;SDS011;62088;50.240;2.696;2023-07-09T02:42:21;6.38;;;4.22;;
73776;SDS011;62088;50.240;2.696;2023-07-09T02:44:49;8.75;;;4.10;;
73776;SDS011;62088;50.240;2.696;2023-07-09T02:47:17;7.47;;;4.20;;
73776;SDS011;62088;50.240;2.696;2023-07-09T02:49:47;8.15;;;3.25;;
73776;SDS011;62088;50.240;2.696;2023-07-09T02:52:14;6.82;;;3.95;;
73776;SDS011;62088;50.240;2.696;2023-07-09T02:54:42;6.55;;;3.70;;
73776;SDS011;62088;50.240;2.696;2023-07-09T02:57:09;6.32;;;3.20;;
73776;SDS011;62088;50.240;2.696;2023-07-09T02:59:36;6.43;;;3.78;;
73776;SDS011;62088;50.240;2.696;2023-07-09T03:02:04;7.95;;;3.80;;
73776;SDS011;62088;50.240;2.696;2023-07-09T03:04:31;6.97;;;3.97;;
73776;SDS011;62088;50.240;2.696;2023-07-09T03:06:58;7.07;;;3.47;;
73776;SDS011;62088;50.240;2.696;2023-07-09T03:09:29;8.15;;;3.45;;
73776;SDS011;62088;50.240;2.696;2023-07-09T03:11:56;6.35;;;3.80;;
73776;SDS011;62088;50.240;2.696;2023-07-09T03:14:23;6.90;;;3.55;;
73776;SDS011;62088;50.240;2.696;2023-07-09T03:16:50;7.80;;;3.95;;
73776;SDS011;62088;50.240;2.696;2023-07-09T03:19:18;5.65;;;3.55;;
73776;SDS011;62088;50.240;2.696;2023-07-09T03:21:46;5.68;;;3.42;;
73776;SDS011;62088;50.240;2.696;2023-07-09T03:24:13;6.45;;;3.28;;
73776;SDS011;62088;50.240;2.696;2023-07-09T03:26:46;8.93;;;3.63;;
73776;SDS011;62088;50.240;2.696;2023-07-09T03:29:13;7.45;;;3.50;;
73776;SDS011;62088;50.240;2.696;2023-07-09T03:31:41;6.88;;;3.58;;
73776;SDS011;62088;50.240;2.696;2023-07-09T03:34:08;7.07;;;3.30;;
73776;SDS011;62088;50.240;2.696;2023-07-09T03:36:36;7.10;;;3.30;;
73776;SDS011;62088;50.240;2.696;2023-07-09T03:39:04;10.35;;;3.47;;
73776;SDS011;62088;50.240;2.696;2023-07-09T03:41:32;8.82;;;3.78;;
73776;SDS011;62088;50.240;2.696;2023-07-09T03:44:00;7.45;;;3.15;;
73776;SDS011;62088;50.240;2.696;2023-07-09T03:46:27;8.23;;;3.60;;
73776;SDS011;62088;50.240;2.696;2023-07-09T03:48:54;7.00;;;3.80;;
73776;SDS011;62088;50.240;2.696;2023-07-09T03:51:22;10.18;;;3.55;;
73776;SDS011;62088;50.240;2.696;2023-07-09T03:53:49;6.70;;;4.03;;
73776;SDS011;62088;50.240;2.696;2023-07-09T03:56:16;8.43;;;3.88;;
73776;SDS011;62088;50.240;2.696;2023-07-09T03:58:43;7.68;;;4.10;;
73776;SDS011;62088;50.240;2.696;2023-07-09T04:01:10;6.05;;;3.60;;
73776;SDS011;62088;50.240;2.696;2023-07-09T04:03:37;6.18;;;3.72;;
73776;SDS011;62088;50.240;2.696;2023-07-09T04:06:04;8.38;;;3.97;;
73776;SDS011;62088;50.240;2.696;2023-07-09T04:08:32;8.32;;;4.65;;
73776;SDS011;62088;50.240;2.696;2023-07-09T04:10:59;7.75;;;3.90;;
73776;SDS011;62088;50.240;2.696;2023-07-09T04:13:28;6.47;;;3.67;;
73776;SDS011;62088;50.240;2.696;2023-07-09T04:15:55;6.32;;;3.40;;
73776;SDS011;62088;50.240;2.696;2023-07-09T04:18:23;5.40;;;3.47;;
73776;SDS011;62088;50.240;2.696;2023-07-09T04:20:51;9.32;;;4.30;;
73776;SDS011;62088;50.240;2.696;2023-07-09T04:23:19;8.48;;;4.40;;
73776;SDS011;62088;50.240;2.696;2023-07-09T04:25:46;6.40;;;3.75;;
73776;SDS011;62088;50.240;2.696;2023-07-09T04:28:14;8.65;;;3.88;;
73776;SDS011;62088;50.240;2.696;2023-07-09T04:30:48;8.85;;;4.03;;
73776;SDS011;62088;50.240;2.696;2023-07-09T04:33:17;6.95;;;3.83;;
73776;SDS011;62088;50.240;2.696;2023-07-09T04:35:45;7.13;;;4.18;;
73776;SDS011;62088;50.240;2.696;2023-07-09T04:38:13;7.10;;;3.60;;
73776;SDS011;62088;50.240;2.696;2023-07-09T04:40:42;7.97;;;4.30;;
73776;SDS011;62088;50.240;2.696;2023-07-09T04:43:09;6.15;;;3.63;;
73776;SDS011;62088;50.240;2.696;2023-07-09T04:45:36;6.00;;;3.50;;
73776;SDS011;62088;50.240;2.696;2023-07-09T04:48:03;6.05;;;3.70;;
73776;SDS011;62088;50.240;2.696;2023-07-09T04:50:31;7.43;;;3.70;;
73776;SDS011;62088;50.240;2.696;2023-07-09T04:52:59;6.47;;;3.70;;
73776;SDS011;62088;50.240;2.696;2023-07-09T04:55:26;9.93;;;4.53;;
73776;SDS011;62088;50.240;2.696;2023-07-09T04:57:53;7.53;;;3.78;;
73776;SDS011;62088;50.240;2.696;2023-07-09T05:00:20;7.13;;;3.70;;
73776;SDS011;62088;50.240;2.696;2023-07-09T05:02:48;7.28;;;3.70;;
73776;SDS011;62088;50.240;2.696;2023-07-09T05:05:15;9.32;;;4.32;;
73776;SDS011;62088;50.240;2.696;2023-07-09T05:07:42;7.75;;;3.78;;
73776;SDS011;62088;50.240;2.696;2023-07-09T05:10:09;7.93;;;4.43;;
73776;SDS011;62088;50.240;2.696;2023-07-09T05:12:46;9.23;;;4.15;;
73776;SDS011;62088;50.240;2.696;2023-07-09T05:15:14;12.82;;;4.03;;
73776;SDS011;62088;50.240;2.696;2023-07-09T05:17:42;6.95;;;4.30;;
73776;SDS011;62088;50.240;2.696;2023-07-09T05:20:09;6.93;;;4.07;;
73776;SDS011;62088;50.240;2.696;2023-07-09T05:22:36;7.20;;;4.30;;
73776;SDS011;62088;50.240;2.696;2023-07-09T05:25:04;6.80;;;4.00;;
73776;SDS011;62088;50.240;2.696;2023-07-09T05:27:31;7.95;;;4.00;;
73776;SDS011;62088;50.240;2.696;2023-07-09T05:29:58;7.18;;;3.75;;
73776;SDS011;62088;50.240;2.696;2023-07-09T05:32:26;8.50;;;4.00;;
73776;SDS011;62088;50.240;2.696;2023-07-09T05:34:54;5.47;;;3.50;;
73776;SDS011;62088;50.240;2.696;2023-07-09T05:37:21;6.15;;;3.90;;
73776;SDS011;62088;50.240;2.696;2023-07-09T05:39:47;5.68;;;3.70;;
73776;SDS011;62088;50.240;2.696;2023-07-09T05:42:15;7.07;;;4.03;;
73776;SDS011;62088;50.240;2.696;2023-07-09T05:44:42;5.80;;;3.35;;
73776;SDS011;62088;50.240;2.696;2023-07-09T05:47:09;6.93;;;3.60;;
73776;SDS011;62088;50.240;2.696;2023-07-09T05:49:37;6.32;;;3.80;;
73776;SDS011;62088;50.240;2.696;2023-07-09T05:52:05;12.07;;;4.15;;
73776;SDS011;62088;50.240;2.696;2023-07-09T05:54:32;6.38;;;4.13;;
73776;SDS011;62088;50.240;2.696;2023-07-09T05:57:00;8.02;;;3.90;;
73776;SDS011;62088;50.240;2.696;2023-07-09T05:59:27;10.93;;;4.35;;
73776;SDS011;62088;50.240;2.696;2023-07-09T06:01:54;9.38;;;4.60;;
73776;SDS011;62088;50.240;2.696;2023-07-09T06:04:21;7.75;;;4.43;;
73776;SDS011;62088;50.240;2.696;2023-07-09T06:06:48;5.50;;;3.70;;
73776;SDS011;62088;50.240;2.696;2023-07-09T06:09:15;8.23;;;4.72;;
73776;SDS011;62088;50.240;2.696;2023-07-09T06:11:42;7.55;;;4.20;;
73776;SDS011;62088;50.240;2.696;2023-07-09T06:14:10;8.02;;;4.50;;
73776;SDS011;62088;50.240;2.696;2023-07-09T06:16:37;6.50;;;4.10;;
73776;SDS011;62088;50.240;2.696;2023-07-09T06:19:04;8.07;;;4.45;;
73776;SDS011;62088;50.240;2.696;2023-07-09T06:21:31;8.77;;;4.32;;
73776;SDS011;62088;50.240;2.696;2023-07-09T06:23:58;6.10;;;3.40;;
73776;SDS011;62088;50.240;2.696;2023-07-09T06:26:25;8.82;;;3.95;;
73776;SDS011;62088;50.240;2.696;2023-07-09T06:28:52;7.70;;;3.55;;
73776;SDS011;62088;50.240;2.696;2023-07-09T06:31:20;7.38;;;3.78;;
73776;SDS011;62088;50.240;2.696;2023-07-09T06:33:47;6.88;;;3.65;;
73776;SDS011;62088;50.240;2.696;2023-07-09T06:36:14;10.15;;;4.10;;
73776;SDS011;62088;50.240;2.696;2023-07-09T06:51:27;8.95;;;4.07;;
73776;SDS011;62088;50.240;2.696;2023-07-09T06:53:55;9.00;;;3.88;;
73776;SDS011;62088;50.240;2.696;2023-07-09T06:56:22;6.70;;;3.13;;
73776;SDS011;62088;50.240;2.696;2023-07-09T06:58:49;8.02;;;3.92;;
73776;SDS011;62088;50.240;2.696;2023-07-09T07:01:16;6.30;;;2.75;;
73776;SDS011;62088;50.240;2.696;2023-07-09T07:03:46;5.47;;;3.60;;
73776;SDS011;62088;50.240;2.696;2023-07-09T07:06:13;6.82;;;3.40;;
73776;SDS011;62088;50.240;2.696;2023-07-09T07:08:42;8.88;;;2.90;;
73776;SDS011;62088;50.240;2.696;2023-07-09T07:11:09;8.70;;;3.45;;
73776;SDS011;62088;50.240;2.696;2023-07-09T07:13:37;6.70;;;3.30;;
73776;SDS011;62088;50.240;2.696;2023-07-09T07:16:06;6.20;;;2.90;;
73776;SDS011;62088;50.240;2.696;2023-07-09T07:18:35;6.07;;;3.42;;
73776;SDS011;62088;50.240;2.696;2023-07-09T07:21:02;13.15;;;3.00;;
73776;SDS011;62088;50.240;2.696;2023-07-09T07:23:30;9.48;;;3.65;;
73776;SDS011;62088;50.240;2.696;2023-07-09T07:25:57;7.63;;;3.13;;
73776;SDS011;62088;50.240;2.696;2023-07-09T07:28:24;6.05;;;3.10;;
73776;SDS011;62088;50.240;2.696;2023-07-09T07:31:01;6.18;;;3.25;;
73776;SDS011;62088;50.240;2.696;2023-07-09T07:33:30;5.47;;;2.60;;
73776;SDS011;62088;50.240;2.696;2023-07-09T07:35:57;6.43;;;2.72;;
73776;SDS011;62088;50.240;2.696;2023-07-09T07:38:27;5.05;;;2.55;;
73776;SDS011;62088;50.240;2.696;2023-07-09T07:40:54;5.45;;;2.42;;
73776;SDS011;62088;50.240;2.696;2023-07-09T07:43:21;5.03;;;2.47;;
73776;SDS011;62088;50.240;2.696;2023-07-09T07:45:48;4.90;;;2.38;;
73776;SDS011;62088;50.240;2.696;2023-07-09T07:48:15;5.18;;;2.22;;
73776;SDS011;62088;50.240;2.696;2023-07-09T07:50:42;4.55;;;2.50;;
73776;SDS011;62088;50.240;2.696;2023-07-09T07:53:12;4.95;;;2.40;;
73776;SDS011;62088;50.240;2.696;2023-07-09T07:55:40;5.38;;;2.45;;
73776;SDS011;62088;50.240;2.696;2023-07-09T07:58:11;6.38;;;2.70;;
73776;SDS011;62088;50.240;2.696;2023-07-09T08:00:39;5.95;;;2.47;;
73776;SDS011;62088;50.240;2.696;2023-07-09T08:03:06;5.57;;;2.30;;
73776;SDS011;62088;50.240;2.696;2023-07-09T08:05:34;5.43;;;2.10;;
73776;SDS011;62088;50.240;2.696;2023-07-09T08:08:01;4.75;;;2.17;;
73776;SDS011;62088;50.240;2.696;2023-07-09T08:10:28;4.47;;;1.95;;
73776;SDS011;62088;50.240;2.696;2023-07-09T08:12:55;4.07;;;1.98;;
73776;SDS011;62088;50.240;2.696;2023-07-09T08:15:24;4.82;;;2.10;;
73776;SDS011;62088;50.240;2.696;2023-07-09T08:17:51;3.85;;;1.77;;
73776;SDS011;62088;50.240;2.696;2023-07-09T08:20:18;5.50;;;2.28;;
73776;SDS011;62088;50.240;2.696;2023-07-09T08:22:45;4.13;;;2.20;;
73776;SDS011;62088;50.240;2.696;2023-07-09T08:25:12;4.05;;;1.80;;
73776;SDS011;62088;50.240;2.696;2023-07-09T08:27:40;4.93;;;2.20;;
73776;SDS011;62088;50.240;2.696;2023-07-09T08:30:07;5.00;;;1.90;;
73776;SDS011;62088;50.240;2.696;2023-07-09T08:32:35;4.20;;;2.10;;
73776;SDS011;62088;50.240;2.696;2023-07-09T08:35:02;4.22;;;1.90;;
73776;SDS011;62088;50.240;2.696;2023-07-09T08:37:32;4.28;;;2.22;;
73776;SDS011;62088;50.240;2.696;2023-07-09T08:39:59;4.57;;;2.10;;
73776;SDS011;62088;50.240;2.696;2023-07-09T08:42:29;5.95;;;2.05;;
73776;SDS011;62088;50.240;2.696;2023-07-09T08:48:24;4.53;;;2.13;;
73776;SDS011;62088;50.240;2.696;2023-07-09T08:51:48;4.65;;;2.20;;
73776;SDS011;62088;50.240;2.696;2023-07-09T08:54:01;4.20;;;2.20;;
73776;SDS011;62088;50.240;2.696;2023-07-09T08:56:29;5.45;;;2.17;;
73776;SDS011;62088;50.240;2.696;2023-07-09T08:59:00;4.80;;;2.20;;
73776;SDS011;62088;50.240;2.696;2023-07-09T09:01:34;6.65;;;2.15;;
73776;SDS011;62088;50.240;2.696;2023-07-09T09:06:39;12.33;;;2.63;;
73776;SDS011;62088;50.240;2.696;2023-07-09T09:12:15;5.93;;;2.67;;
73776;SDS011;62088;50.240;2.696;2023-07-09T09:15:00;5.57;;;2.42;;
73776;SDS011;62088;50.240;2.696;2023-07-09T09:17:32;5.82;;;2.67;;
73776;SDS011;62088;50.240;2.696;2023-07-09T09:20:05;6.22;;;3.00;;
73776;SDS011;62088;50.240;2.696;2023-07-09T09:23:17;4.72;;;2.67;;
73776;SDS011;62088;50.240;2.696;2023-07-09T09:25:41;6.43;;;3.33;;
73776;SDS011;62088;50.240;2.696;2023-07-09T09:28:23;6.38;;;3.08;;
73776;SDS011;62088;50.240;2.696;2023-07-09T09:30:53;5.43;;;3.10;;
73776;SDS011;62088;50.240;2.696;2023-07-09T09:33:20;11.05;;;3.60;;
73776;SDS011;62088;50.240;2.696;2023-07-09T09:35:47;8.38;;;3.60;;
73776;SDS011;62088;50.240;2.696;2023-07-09T09:38:20;5.82;;;3.42;;
73776;SDS011;62088;50.240;2.696;2023-07-09T09:40:48;6.40;;;2.92;;
73776;SDS011;62088;50.240;2.696;2023-07-09T09:43:16;5.80;;;3.00;;
73776;SDS011;62088;50.240;2.696;2023-07-09T09:45:47;6.13;;;3.15;;
73776;SDS011;62088;50.240;2.696;2023-07-09T09:50:47;4.53;;;2.60;;
73776;SDS011;62088;50.240;2.696;2023-07-09T09:53:18;5.95;;;3.00;;
73776;SDS011;62088;50.240;2.696;2023-07-09T09:55:53;5.63;;;2.53;;
73776;SDS011;62088;50.240;2.696;2023-07-09T09:58:25;5.30;;;2.55;;
73776;SDS011;62088;50.240;2.696;2023-07-09T10:00:55;5.63;;;2.28;;
73776;SDS011;62088;50.240;2.696;2023-07-09T10:03:34;8.15;;;2.63;;
73776;SDS011;62088;50.240;2.696;2023-07-09T10:06:18;4.95;;;2.28;;
73776;SDS011;62088;50.240;2.696;2023-07-09T10:08:52;5.22;;;2.33;;
73776;SDS011;62088;50.240;2.696;2023-07-09T10:17:00;4.93;;;2.60;;
73776;SDS011;62088;50.240;2.696;2023-07-09T10:23:02;4.65;;;2.30;;
73776;SDS011;62088;50.240;2.696;2023-07-09T10:34:12;6.25;;;2.70;;
73776;SDS011;62088;50.240;2.696;2023-07-09T10:37:08;7.45;;;2.33;;
73776;SDS011;62088;50.240;2.696;2023-07-09T10:39:55;5.63;;;2.33;;
73776;SDS011;62088;50.240;2.696;2023-07-09T10:42:29;6.07;;;2.40;;
73776;SDS011;62088;50.240;2.696;2023-07-09T10:45:01;6.80;;;2.22;;
73776;SDS011;62088;50.240;2.696;2023-07-09T10:47:35;5.18;;;2.28;;
73776;SDS011;62088;50.240;2.696;2023-07-09T10:50:12;4.70;;;2.38;;
73776;SDS011;62088;50.240;2.696;2023-07-09T10:52:47;8.40;;;3.08;;
73776;SDS011;62088;50.240;2.696;2023-07-09T10:55:21;5.68;;;2.63;;
73776;SDS011;62088;50.240;2.696;2023-07-09T10:58:03;5.50;;;2.42;;
73776;SDS011;62088;50.240;2.696;2023-07-09T11:03:19;6.97;;;2.58;;
73776;SDS011;62088;50.240;2.696;2023-07-09T11:05:48;5.93;;;2.50;;
73776;SDS011;62088;50.240;2.696;2023-07-09T11:08:18;5.10;;;2.58;;
73776;SDS011;62088;50.240;2.696;2023-07-09T11:13:28;6.85;;;2.45;;
73776;SDS011;62088;50.240;2.696;2023-07-09T11:16:24;5.93;;;2.60;;
73776;SDS011;62088;50.240;2.696;2023-07-09T11:19:01;4.45;;;2.40;;
73776;SDS011;62088;50.240;2.696;2023-07-09T11:21:30;3.93;;;1.93;;
73776;SDS011;62088;50.240;2.696;2023-07-09T11:23:58;5.15;;;2.25;;
73776;SDS011;62088;50.240;2.696;2023-07-09T11:26:28;4.95;;;1.95;;
73776;SDS011;62088;50.240;2.696;2023-07-09T11:34:09;5.97;;;2.08;;
73776;SDS011;62088;50.240;2.696;2023-07-09T11:39:22;6.05;;;2.28;;
73776;SDS011;62088;50.240;2.696;2023-07-09T11:41:53;6.13;;;2.10;;
73776;SDS011;62088;50.240;2.696;2023-07-09T11:44:22;4.63;;;1.73;;
73776;SDS011;62088;50.240;2.696;2023-07-09T11:49:55;4.55;;;2.00;;
73776;SDS011;62088;50.240;2.696;2023-07-09T11:52:45;6.82;;;2.50;;
73776;SDS011;62088;50.240;2.696;2023-07-09T11:55:41;4.53;;;1.95;;
73776;SDS011;62088;50.240;2.696;2023-07-09T11:58:10;6.07;;;2.20;;
73776;SDS011;62088;50.240;2.696;2023-07-09T12:00:52;4.85;;;2.08;;
73776;SDS011;62088;50.240;2.696;2023-07-09T12:03:32;5.55;;;2.17;;
73776;SDS011;62088;50.240;2.696;2023-07-09T12:06:20;4.40;;;2.13;;
73776;SDS011;62088;50.240;2.696;2023-07-09T12:08:50;3.88;;;1.70;;
73776;SDS011;62088;50.240;2.696;2023-07-09T12:11:19;5.43;;;2.15;;
73776;SDS011;62088;50.240;2.696;2023-07-09T12:13:52;3.67;;;1.55;;
73776;SDS011;62088;50.240;2.696;2023-07-09T12:16:36;6.30;;;2.35;;
73776;SDS011;62088;50.240;2.696;2023-07-09T12:19:07;4.72;;;2.20;;
73776;SDS011;62088;50.240;2.696;2023-07-09T12:21:38;5.90;;;2.65;;
73776;SDS011;62088;50.240;2.696;2023-07-09T12:27:16;6.22;;;2.85;;
73776;SDS011;62088;50.240;2.696;2023-07-09T12:29:44;5.90;;;2.78;;
73776;SDS011;62088;50.240;2.696;2023-07-09T12:32:12;7.13;;;2.67;;
73776;SDS011;62088;50.240;2.696;2023-07-09T12:34:46;6.13;;;2.90;;
73776;SDS011;62088;50.240;2.696;2023-07-09T12:37:14;6.45;;;2.90;;
73776;SDS011;62088;50.240;2.696;2023-07-09T12:39:42;6.57;;;3.08;;
73776;SDS011;62088;50.240;2.696;2023-07-09T12:42:17;6.10;;;3.17;;
73776;SDS011;62088;50.240;2.696;2023-07-09T12:44:47;6.85;;;3.78;;
73776;SDS011;62088;50.240;2.696;2023-07-09T12:47:15;7.88;;;4.10;;
73776;SDS011;62088;50.240;2.696;2023-07-09T12:49:44;6.82;;;3.55;;
73776;SDS011;62088;50.240;2.696;2023-07-09T12:52:18;8.23;;;3.92;;
73776;SDS011;62088;50.240;2.696;2023-07-09T12:54:59;8.27;;;3.78;;
73776;SDS011;62088;50.240;2.696;2023-07-09T12:57:29;6.45;;;3.33;;
73776;SDS011;62088;50.240;2.696;2023-07-09T12:59:57;9.50;;;3.88;;
73776;SDS011;62088;50.240;2.696;2023-07-09T13:02:27;8.00;;;3.50;;
73776;SDS011;62088;50.240;2.696;2023-07-09T13:05:01;9.02;;;3.78;;
73776;SDS011;62088;50.240;2.696;2023-07-09T13:07:42;8.45;;;3.53;;
73776;SDS011;62088;50.240;2.696;2023-07-09T13:10:25;7.10;;;3.65;;
73776;SDS011;62088;50.240;2.696;2023-07-09T13:12:57;9.43;;;4.28;;
73776;SDS011;62088;50.240;2.696;2023-07-09T13:18:05;7.40;;;3.85;;
73776;SDS011;62088;50.240;2.696;2023-07-09T13:20:35;6.57;;;4.00;;
73776;SDS011;62088;50.240;2.696;2023-07-09T13:23:16;7.47;;;3.35;;
73776;SDS011;62088;50.240;2.696;2023-07-09T13:25:45;6.45;;;3.30;;
73776;SDS011;62088;50.240;2.696;2023-07-09T13:28:15;7.85;;;3.90;;
73776;SDS011;62088;50.240;2.696;2023-07-09T13:30:50;7.50;;;3.72;;
73776;SDS011;62088;50.240;2.696;2023-07-09T13:33:20;6.40;;;3.23;;
73776;SDS011;62088;50.240;2.696;2023-07-09T13:35:47;5.60;;;3.17;;
73776;SDS011;62088;50.240;2.696;2023-07-09T13:38:15;6.72;;;3.40;;
73776;SDS011;62088;50.240;2.696;2023-07-09T13:40:44;7.00;;;3.38;;
73776;SDS011;62088;50.240;2.696;2023-07-09T13:43:17;7.20;;;3.30;;
73776;SDS011;62088;50.240;2.696;2023-07-09T13:45:46;6.30;;;3.60;;
73776;SDS011;62088;50.240;2.696;2023-07-09T13:48:16;7.97;;;3.90;;
73776;SDS011;62088;50.240;2.696;2023-07-09T13:50:47;5.85;;;2.95;;
73776;SDS011;62088;50.240;2.696;2023-07-09T13:53:18;7.10;;;2.92;;
73776;SDS011;62088;50.240;2.696;2023-07-09T13:55:47;5.57;;;2.92;;
73776;SDS011;62088;50.240;2.696;2023-07-09T13:58:18;6.53;;;3.45;;
73776;SDS011;62088;50.240;2.696;2023-07-09T14:00:47;7.10;;;3.45;;
73776;SDS011;62088;50.240;2.696;2023-07-09T14:03:19;5.25;;;3.00;;
73776;SDS011;62088;50.240;2.696;2023-07-09T14:05:49;7.82;;;3.30;;
73776;SDS011;62088;50.240;2.696;2023-07-09T14:08:16;6.40;;;3.28;;
73776;SDS011;62088;50.240;2.696;2023-07-09T14:10:46;5.57;;;3.03;;
73776;SDS011;62088;50.240;2.696;2023-07-09T14:13:14;7.55;;;4.13;;
73776;SDS011;62088;50.240;2.696;2023-07-09T14:15:46;8.23;;;3.70;;
73776;SDS011;62088;50.240;2.696;2023-07-09T14:18:14;8.43;;;3.80;;
73776;SDS011;62088;50.240;2.696;2023-07-09T14:20:43;7.70;;;3.60;;
73776;SDS011;62088;50.240;2.696;2023-07-09T14:23:11;7.25;;;3.70;;
73776;SDS011;62088;50.240;2.696;2023-07-09T14:25:40;5.53;;;3.22;;
73776;SDS011;62088;50.240;2.696;2023-07-09T14:28:12;8.00;;;3.58;;
73776;SDS011;62088;50.240;2.696;2023-07-09T14:30:40;7.28;;;3.30;;
73776;SDS011;62088;50.240;2.696;2023-07-09T14:33:12;7.20;;;3.17;;
73776;SDS011;62088;50.240;2.696;2023-07-09T14:35:41;5.55;;;2.95;;
73776;SDS011;62088;50.240;2.696;2023-07-09T14:40:44;7.30;;;3.67;;
73776;SDS011;62088;50.240;2.696;2023-07-09T14:43:12;5.38;;;3.30;;
73776;SDS011;62088;50.240;2.696;2023-07-09T14:45:39;6.18;;;3.35;;
73776;SDS011;62088;50.240;2.696;2023-07-09T14:48:10;9.07;;;3.40;;
73776;SDS011;62088;50.240;2.696;2023-07-09T14:50:42;6.85;;;3.25;;
73776;SDS011;62088;50.240;2.696;2023-07-09T14:53:27;6.00;;;2.80;;
73776;SDS011;62088;50.240;2.696;2023-07-09T14:55:54;6.47;;;3.20;;
73776;SDS011;62088;50.240;2.696;2023-07-09T14:58:22;5.20;;;2.65;;
73776;SDS011;62088;50.240;2.696;2023-07-09T15:00:50;5.55;;;2.50;;
73776;SDS011;62088;50.240;2.696;2023-07-09T15:03:19;5.43;;;2.63;;
73776;SDS011;62088;50.240;2.696;2023-07-09T15:05:48;5.78;;;3.00;;
73776;SDS011;62088;50.240;2.696;2023-07-09T15:08:18;6.10;;;2.78;;
73776;SDS011;62088;50.240;2.696;2023-07-09T15:10:49;5.90;;;2.85;;
73776;SDS011;62088;50.240;2.696;2023-07-09T15:13:19;5.55;;;2.50;;
73776;SDS011;62088;50.240;2.696;2023-07-09T15:15:53;6.43;;;2.92;;
73776;SDS011;62088;50.240;2.696;2023-07-09T15:18:25;4.90;;;2.45;;
73776;SDS011;62088;50.240;2.696;2023-07-09T15:20:54;5.25;;;2.35;;
73776;SDS011;62088;50.240;2.696;2023-07-09T15:23:25;6.63;;;2.40;;
73776;SDS011;62088;50.240;2.696;2023-07-09T15:25:53;5.03;;;2.40;;
73776;SDS011;62088;50.240;2.696;2023-07-09T15:28:21;5.53;;;2.35;;
73776;SDS011;62088;50.240;2.696;2023-07-09T15:30:48;6.07;;;2.53;;
73776;SDS011;62088;50.240;2.696;2023-07-09T15:33:19;5.47;;;2.38;;
73776;SDS011;62088;50.240;2.696;2023-07-09T15:35:47;5.95;;;2.80;;
73776;SDS011;62088;50.240;2.696;2023-07-09T15:40:45;4.10;;;2.08;;
73776;SDS011;62088;50.240;2.696;2023-07-09T16:06:10;4.72;;;1.67;;
73776;SDS011;62088;50.240;2.696;2023-07-09T16:08:37;3.80;;;1.67;;
73776;SDS011;62088;50.240;2.696;2023-07-09T16:11:09;5.00;;;1.80;;
73776;SDS011;62088;50.240;2.696;2023-07-09T16:13:39;8.20;;;1.60;;
73776;SDS011;62088;50.240;2.696;2023-07-09T16:16:16;2.90;;;1.25;;
73776;SDS011;62088;50.240;2.696;2023-07-09T16:18:48;3.33;;;1.50;;
73776;SDS011;62088;50.240;2.696;2023-07-09T16:21:21;4.28;;;1.30;;
73776;SDS011;62088;50.240;2.696;2023-07-09T16:23:48;5.22;;;1.60;;
73776;SDS011;62088;50.240;2.696;2023-07-09T16:26:15;4.13;;;1.50;;
73776;SDS011;62088;50.240;2.696;2023-07-09T16:28:42;4.07;;;1.40;;
73776;SDS011;62088;50.240;2.696;2023-07-09T16:31:09;3.60;;;1.40;;
73776;SDS011;62088;50.240;2.696;2023-07-09T16:33:36;3.17;;;1.30;;
73776;SDS011;62088;50.240;2.696;2023-07-09T16:36:03;6.45;;;1.67;;
73776;SDS011;62088;50.240;2.696;2023-07-09T16:38:32;3.63;;;1.30;;
73776;SDS011;62088;50.240;2.696;2023-07-09T16:41:01;7.15;;;1.98;;
73776;SDS011;62088;50.240;2.696;2023-07-09T16:43:28;4.50;;;1.95;;